createdAt,value
2023-05-08T00:03:34.087Z,16.40
2023-05-08T00:08:36.117Z,14.80
2023-05-08T00:13:37.832Z,15.40
2023-05-08T00:18:39.770Z,15.50
2023-05-08T00:23:41.558Z,13.57
2023-05-08T00:28:43.211Z,12.97
2023-05-08T00:33:44.794Z,13.37
2023-05-08T00:38:46.360Z,15.10
2023-05-08T00:43:48.048Z,14.13
2023-05-08T00:48:49.796Z,15.13
2023-05-08T00:53:51.559Z,11.60
2023-05-08T00:58:54.077Z,12.57
2023-05-08T01:03:56.206Z,13.87
2023-05-08T01:08:58.157Z,10.23
2023-05-08T01:14:17.622Z,11.13
2023-05-08T01:20:00.798Z,10.00
2023-05-08T01:25:21.211Z,10.27
2023-05-08T01:30:50.656Z,9.47
2023-05-08T01:35:59.185Z,10.17
2023-05-08T01:41:10.599Z,9.97
2023-05-08T01:46:18.806Z,9.37
2023-05-08T01:51:25.492Z,9.47
2023-05-08T01:56:30.059Z,9.77
2023-05-08T02:01:34.496Z,9.50
2023-05-08T02:06:38.782Z,10.80
2023-05-08T02:11:44.283Z,11.50
2023-05-08T02:16:47.860Z,11.47
2023-05-08T02:21:52.163Z,12.70
2023-05-08T02:26:56.243Z,12.27
2023-05-08T02:32:00.570Z,14.03
2023-05-08T02:37:03.302Z,13.17
2023-05-08T02:42:05.048Z,13.23
2023-05-08T02:47:23.763Z,13.57
2023-05-08T02:52:30.883Z,13.77
2023-05-08T02:57:57.412Z,16.20
2023-05-08T03:03:13.665Z,13.23
2023-05-08T03:08:18.650Z,14.70
2023-05-08T03:13:21.448Z,14.00
2023-05-08T03:18:32.364Z,17.47
2023-05-08T03:23:37.065Z,18.10
2023-05-08T03:28:40.380Z,18.53
2023-05-08T03:33:43.401Z,17.87
2023-05-08T03:38:45.384Z,25.93
2023-05-08T03:43:47.844Z,20.47
2023-05-08T03:48:50.562Z,17.70
2023-05-08T03:53:52.145Z,19.43
2023-05-08T03:59:09.220Z,22.40
2023-05-08T04:04:17.937Z,15.43
2023-05-08T04:09:40.465Z,16.20
2023-05-08T04:14:48.532Z,17.17
2023-05-08T04:19:55.813Z,16.00
2023-05-08T04:25:01.263Z,17.20
2023-05-08T04:30:03.093Z,18.50
2023-05-08T04:35:05.423Z,17.07
2023-05-08T04:40:07.862Z,17.00
2023-05-08T04:45:10.357Z,14.87
2023-05-08T04:50:12.056Z,16.60
2023-05-08T04:55:14.025Z,16.10
2023-05-08T05:00:17.552Z,15.50
2023-05-08T05:05:19.262Z,15.90
2023-05-08T05:10:20.938Z,17.53
2023-05-08T05:15:22.902Z,15.83
2023-05-08T05:20:24.467Z,16.43
2023-05-08T05:25:26.108Z,16.93
2023-05-08T05:30:28.041Z,16.33
2023-05-08T05:35:29.578Z,14.17
2023-05-08T05:40:31.399Z,14.57
2023-05-08T05:45:33.778Z,16.30
2023-05-08T05:50:35.553Z,15.17
2023-05-08T05:55:37.247Z,15.30
2023-05-08T06:00:38.827Z,14.47
2023-05-08T06:05:41.259Z,14.80
2023-05-08T06:10:42.836Z,15.40
2023-05-08T06:15:44.472Z,15.50
2023-05-08T06:20:46.031Z,15.47
2023-05-08T06:25:48.125Z,16.70
2023-05-08T06:30:49.805Z,15.97
2023-05-08T06:35:51.547Z,16.40
2023-05-08T06:40:54.049Z,14.90
2023-05-08T06:45:55.778Z,15.90
2023-05-08T06:50:57.364Z,17.20
2023-05-08T06:55:58.974Z,19.50
2023-05-08T07:01:01.804Z,18.10
2023-05-08T07:06:03.452Z,19.13
2023-05-08T07:11:05.520Z,19.13
2023-05-08T07:16:11.009Z,16.67
2023-05-08T07:21:13.180Z,18.13
2023-05-08T07:26:14.767Z,17.77
2023-05-08T07:31:16.757Z,17.20
2023-05-08T07:36:18.367Z,16.13
2023-05-08T07:41:20.178Z,16.70
2023-05-08T07:46:22.610Z,15.77
2023-05-08T07:51:24.358Z,16.33
2023-05-08T07:56:26.037Z,17.87
2023-05-08T08:01:27.591Z,17.10
2023-05-08T08:06:29.283Z,17.47
2023-05-08T08:11:30.945Z,17.87
2023-05-08T08:16:32.540Z,17.30
2023-05-08T08:21:34.267Z,16.27
2023-05-08T08:26:35.912Z,16.50
2023-05-08T08:31:37.814Z,17.50
2023-05-08T08:36:39.976Z,16.30
2023-05-08T08:41:41.732Z,18.27
2023-05-08T08:46:52.828Z,16.17
2023-05-08T08:51:59.462Z,16.43
2023-05-08T08:57:03.465Z,17.40
2023-05-08T09:02:15.108Z,16.13
2023-05-08T09:07:17.935Z,18.83
2023-05-08T09:12:19.478Z,19.27
2023-05-08T09:17:21.981Z,20.23
2023-05-08T09:22:24.727Z,21.73
2023-05-08T09:27:28.235Z,19.00
2023-05-08T09:32:33.792Z,19.80
2023-05-08T09:37:39.324Z,17.73
2023-05-08T09:42:41.065Z,16.93
2023-05-08T09:47:48.189Z,17.30
2023-05-08T09:52:50.862Z,16.57
2023-05-08T09:57:57.798Z,14.73
2023-05-08T10:03:01.483Z,15.57
2023-05-08T10:08:29.934Z,16.50
2023-05-08T10:13:31.517Z,16.03
2023-05-08T10:18:36.997Z,15.37
2023-05-08T10:23:39.986Z,13.77
2023-05-08T10:28:59.326Z,14.98
2023-05-08T10:34:02.578Z,14.98
2023-05-08T10:39:05.284Z,14.60
2023-05-08T10:44:07.796Z,14.63
2023-05-08T10:49:37.590Z,14.90
2023-05-08T10:54:39.747Z,13.00
2023-05-08T10:59:47.872Z,10.93
2023-05-08T11:06:47.159Z,11.50
2023-05-08T11:12:18.476Z,11.60
2023-05-08T11:17:24.565Z,11.45
2023-05-08T11:22:29.181Z,10.70
2023-05-08T11:27:33.856Z,11.05
2023-05-08T11:33:03.188Z,8.77
2023-05-08T11:38:19.558Z,9.50
2023-05-08T11:43:33.255Z,8.77
2023-05-08T11:48:35.813Z,8.45
2023-05-08T11:53:38.176Z,8.75
2023-05-08T11:58:39.737Z,8.40
2023-05-08T12:03:41.417Z,8.80
2023-05-08T12:08:43.128Z,9.05
2023-05-08T12:13:51.021Z,10.38
2023-05-08T12:18:53.585Z,11.10
2023-05-08T12:23:56.172Z,11.07
2023-05-08T12:28:57.842Z,12.38
2023-05-08T12:33:59.738Z,14.67
2023-05-08T12:39:15.224Z,15.60
2023-05-08T12:44:24.746Z,15.90
2023-05-08T12:49:28.877Z,16.00
2023-05-08T12:54:46.406Z,16.30
2023-05-08T12:59:49.007Z,15.00
2023-05-08T13:04:56.664Z,14.05
2023-05-08T13:10:05.499Z,13.68
2023-05-08T13:15:07.691Z,15.05
2023-05-08T13:20:10.167Z,14.45
2023-05-08T13:25:12.629Z,14.77
2023-05-08T13:30:15.672Z,12.32
2023-05-08T13:35:18.485Z,12.77
2023-05-08T13:40:20.417Z,11.85
2023-05-08T13:45:22.076Z,10.88
2023-05-08T13:50:23.691Z,12.25
2023-05-08T13:55:25.348Z,10.07
2023-05-08T14:00:28.266Z,8.13
2023-05-08T14:05:29.932Z,8.15
2023-05-08T14:10:31.548Z,8.48
2023-05-08T14:15:37.244Z,6.57
2023-05-08T14:20:39.440Z,6.22
2023-05-08T14:25:41.116Z,6.10
2023-05-08T14:30:42.683Z,8.85
2023-05-08T14:35:45.673Z,6.60
2023-05-08T14:40:50.856Z,6.68
2023-05-08T14:45:52.607Z,7.30
2023-05-08T14:50:54.253Z,6.50
2023-05-08T14:55:56.060Z,6.95
2023-05-08T15:05:28.003Z,7.80
2023-05-08T15:10:29.717Z,6.63
2023-05-08T15:15:31.770Z,6.57
2023-05-08T15:20:33.446Z,5.53
2023-05-08T15:25:35.158Z,6.38
2023-05-08T15:30:36.853Z,5.07
2023-05-08T15:35:38.519Z,5.47
2023-05-08T15:40:40.231Z,5.60
2023-05-08T15:45:42.017Z,5.80
2023-05-08T15:50:43.686Z,5.53
2023-05-08T15:55:45.317Z,10.45
2023-05-08T16:00:46.934Z,7.18
2023-05-08T16:05:48.546Z,7.38
2023-05-08T16:10:50.268Z,8.43
2023-05-08T16:15:52.122Z,6.65
2023-05-08T16:20:53.812Z,6.90
2023-05-08T16:25:55.444Z,6.28
2023-05-08T16:30:57.141Z,6.53
2023-05-08T16:35:58.814Z,7.43
2023-05-08T16:41:07.375Z,7.57
2023-05-08T16:46:09.076Z,8.50
2023-05-08T16:51:10.756Z,9.25
2023-05-08T16:56:12.364Z,9.40
2023-05-08T17:01:14.303Z,8.98
2023-05-08T17:06:16.003Z,8.63
2023-05-08T17:11:17.685Z,9.00
2023-05-08T17:16:20.514Z,9.60
2023-05-08T17:21:22.329Z,8.85
2023-05-08T17:26:24.196Z,9.48
2023-05-08T17:31:26.846Z,9.20
2023-05-08T17:36:28.509Z,9.33
2023-05-08T17:41:30.347Z,9.80
2023-05-08T17:46:32.158Z,9.38
2023-05-08T17:51:33.926Z,10.95
2023-05-08T17:56:35.654Z,10.57
2023-05-08T18:01:37.363Z,10.20
2023-05-08T18:06:39.151Z,10.38
2023-05-08T18:11:41.355Z,10.82
2023-05-08T18:16:43.077Z,10.45
2023-05-08T18:21:44.850Z,11.40
2023-05-08T18:26:51.889Z,9.48
2023-05-08T18:31:54.276Z,10.43
2023-05-08T18:36:57.530Z,10.52
2023-05-08T18:41:59.835Z,9.80
2023-05-08T18:47:01.896Z,10.73
2023-05-08T18:52:03.716Z,10.07
2023-05-08T18:57:05.561Z,10.00
2023-05-08T19:02:07.205Z,10.30
2023-05-08T19:07:08.808Z,8.93
2023-05-08T19:12:10.590Z,10.27
2023-05-08T19:17:12.361Z,9.87
2023-05-08T19:22:13.996Z,10.70
2023-05-08T19:27:15.712Z,10.13
2023-05-08T19:32:17.363Z,9.20
2023-05-08T19:37:18.992Z,9.85
2023-05-08T19:42:20.782Z,10.67
2023-05-08T19:47:22.494Z,10.10
2023-05-08T19:52:24.114Z,10.27
2023-05-08T19:57:25.711Z,10.17
2023-05-08T20:02:27.367Z,9.40
2023-05-08T20:07:29.006Z,9.87
2023-05-08T20:12:30.612Z,9.90
2023-05-08T20:17:32.461Z,10.73
2023-05-08T20:22:34.214Z,9.83
2023-05-08T20:27:36.083Z,12.27
2023-05-08T20:32:37.783Z,9.93
2023-05-08T20:37:46.643Z,9.90
2023-05-08T20:42:48.269Z,9.70
2023-05-08T20:47:49.979Z,11.20
2023-05-08T20:52:51.912Z,10.87
2023-05-08T20:57:53.644Z,10.80
2023-05-08T21:02:55.464Z,10.40
2023-05-08T21:08:02.390Z,10.50
2023-05-08T21:13:05.561Z,10.80
2023-05-08T21:18:07.301Z,11.53
2023-05-08T21:23:08.894Z,11.33
2023-05-08T21:28:10.624Z,12.10
2023-05-08T21:33:14.153Z,13.30
2023-05-08T21:38:15.982Z,12.60
2023-05-08T21:43:17.613Z,13.67
2023-05-08T21:48:19.274Z,13.97
2023-05-08T21:53:20.934Z,14.37
2023-05-08T21:58:22.585Z,14.83
2023-05-08T22:03:24.301Z,15.97
2023-05-08T22:08:26.409Z,15.37
2023-05-08T22:13:30.517Z,14.37
2023-05-08T22:18:32.196Z,15.87
2023-05-08T22:23:34.878Z,14.97
2023-05-08T22:28:37.453Z,16.17
2023-05-08T22:33:39.233Z,16.73
2023-05-08T22:38:40.936Z,16.67
2023-05-08T22:43:42.869Z,16.07
2023-05-08T22:48:44.845Z,15.80
2023-05-08T22:53:47.398Z,15.53
2023-05-08T22:58:49.005Z,16.07
2023-05-08T23:03:52.319Z,16.07
2023-05-08T23:08:53.913Z,15.87
2023-05-08T23:13:55.584Z,16.37
2023-05-08T23:18:57.209Z,15.73
2023-05-08T23:23:59.060Z,17.43
2023-05-08T23:29:01.013Z,17.87
2023-05-08T23:34:02.670Z,16.77
2023-05-08T23:39:04.324Z,17.27
2023-05-08T23:44:06.164Z,17.30
2023-05-08T23:49:08.220Z,17.33
2023-05-08T23:54:09.840Z,15.93
2023-05-08T23:59:11.549Z,17.03
